Time;durP1;ratioP1;P1;durP2;ratioP2;P2;SDS_P1;SDS_P2;PMS_P1;PMS_P2;Temp;Humidity;BMP_temperature;BMP_pressure;BME280_temperature;BME280_humidity;BME280_pressure;Samples;Min_cycle;Max_cycle;Signal;HPM_P1;HPM_P2
2023/09/12 00:01:16;;;;;;;14.55;11.88;;;21.80;99.90;;;;;;5035959;28;20248;-61
2023/09/12 00:03:41;;;;;;;12.43;11.13;;;21.80;99.90;;;;;;5020644;28;20202;-61
2023/09/12 00:06:07;;;;;;;13.80;12.35;;;21.80;99.90;;;;;;5034843;28;20218;-62
2023/09/12 00:08:32;;;;;;;13.43;12.00;;;21.80;99.90;;;;;;5039609;28;20229;-61
2023/09/12 00:11:09;;;;;;;13.47;12.07;;;21.80;99.90;;;;;;5037386;28;20221;-62
2023/09/12 00:13:35;;;;;;;13.02;11.68;;;21.70;99.90;;;;;;5032710;28;20244;-62
2023/09/12 00:16:01;;;;;;;16.35;11.13;;;21.80;99.90;;;;;;5039928;28;20211;-61
2023/09/12 00:18:26;;;;;;;11.65;9.95;;;21.80;99.90;;;;;;5037620;28;20217;-61
2023/09/12 00:20:52;;;;;;;10.57;9.20;;;21.70;99.90;;;;;;5037771;28;20176;-61
2023/09/12 00:23:20;;;;;;;13.33;10.63;;;21.70;99.90;;;;;;5041615;28;20206;-61
2023/09/12 00:25:45;;;;;;;12.20;10.00;;;21.70;99.90;;;;;;5037261;28;20289;-62
2023/09/12 00:28:11;;;;;;;13.02;11.48;;;21.70;99.90;;;;;;5033637;28;20765;-62
2023/09/12 00:30:36;;;;;;;12.30;9.83;;;21.60;99.90;;;;;;5043435;28;20194;-62
2023/09/12 00:33:02;;;;;;;16.43;9.50;;;21.60;99.90;;;;;;5037496;28;20201;-61
2023/09/12 00:35:27;;;;;;;11.00;9.90;;;21.60;99.90;;;;;;5040275;28;20229;-62
2023/09/12 00:37:53;;;;;;;12.80;9.87;;;21.60;99.90;;;;;;5018525;28;20226;-61
2023/09/12 00:40:18;;;;;;;11.68;10.48;;;21.60;99.90;;;;;;5040675;28;20194;-62
2023/09/12 00:42:44;;;;;;;11.82;9.68;;;21.60;99.90;;;;;;5041039;28;20692;-62
2023/09/12 00:45:09;;;;;;;11.55;10.38;;;21.60;99.90;;;;;;5012810;28;20305;-62
2023/09/12 00:47:36;;;;;;;12.70;9.40;;;21.60;99.90;;;;;;5034601;28;20234;-61
2023/09/12 00:50:04;;;;;;;10.27;9.30;;;21.60;99.90;;;;;;5029611;28;20191;-61
2023/09/12 00:52:33;;;;;;;15.67;9.20;;;21.60;99.90;;;;;;5037372;28;20310;-61
2023/09/12 00:54:58;;;;;;;9.50;8.60;;;21.60;99.90;;;;;;5034543;28;20295;-61
2023/09/12 00:57:24;;;;;;;11.43;8.77;;;21.60;99.90;;;;;;5020588;28;20240;-61
2023/09/12 00:59:51;;;;;;;9.10;8.20;;;21.50;99.90;;;;;;5038213;28;20307;-61
2023/09/12 01:02:18;;;;;;;9.38;8.48;;;21.50;99.90;;;;;;5022127;28;20190;-62
2023/09/12 01:04:44;;;;;;;9.30;8.40;;;21.50;99.90;;;;;;5039255;28;20218;-61
2023/09/12 01:07:10;;;;;;;11.63;9.03;;;21.50;99.90;;;;;;5035164;28;20280;-63
2023/09/12 01:09:35;;;;;;;9.13;8.32;;;21.50;99.90;;;;;;5038199;28;20837;-58
2023/09/12 01:12:03;;;;;;;11.40;8.90;;;21.50;99.90;;;;;;5021708;28;20207;-59
2023/09/12 01:14:30;;;;;;;14.80;10.15;;;21.50;99.90;;;;;;5034423;28;20470;-61
2023/09/12 01:16:57;;;;;;;9.97;9.03;;;21.50;99.90;;;;;;5037276;28;20768;-63
2023/09/12 01:19:23;;;;;;;10.50;8.80;;;21.50;99.90;;;;;;5035178;28;20207;-59
2023/09/12 01:22:03;;;;;;;11.53;10.00;;;21.50;99.90;;;;;;5040620;28;20233;-59
2023/09/12 01:25:04;;;;;;;9.93;8.90;;;21.60;99.90;;;;;;5036719;28;20202;-59
2023/09/12 01:27:39;;;;;;;10.27;9.37;;;21.50;99.90;;;;;;5004557;28;20996;-59
2023/09/12 01:30:06;;;;;;;10.70;9.63;;;21.50;99.90;;;;;;5034371;28;20206;-59
2023/09/12 01:32:33;;;;;;;10.47;9.17;;;21.50;99.90;;;;;;5038150;28;20199;-59
2023/09/12 01:34:59;;;;;;;11.83;9.33;;;21.50;99.90;;;;;;5033202;28;20683;-59
2023/09/12 01:37:25;;;;;;;10.13;9.23;;;21.50;99.90;;;;;;5019147;28;20195;-59
2023/09/12 01:39:51;;;;;;;10.48;9.27;;;21.50;99.90;;;;;;5020800;28;20661;-58
2023/09/12 01:42:20;;;;;;;9.88;8.63;;;21.40;99.90;;;;;;5035222;28;20207;-58
2023/09/12 01:44:49;;;;;;;10.00;9.00;;;21.40;99.90;;;;;;5032705;28;20186;-58
2023/09/12 01:47:17;;;;;;;9.18;8.27;;;21.40;99.90;;;;;;5032681;28;20229;-59
2023/09/12 01:49:46;;;;;;;14.03;9.17;;;21.30;99.90;;;;;;5034823;28;20195;-59
2023/09/12 01:52:13;;;;;;;10.38;8.43;;;21.30;99.90;;;;;;5040020;28;20783;-62
2023/09/12 01:54:41;;;;;;;10.07;9.13;;;21.30;99.90;;;;;;5031962;28;20708;-61
2023/09/12 01:57:08;;;;;;;9.30;8.40;;;21.30;99.90;;;;;;5034393;28;20203;-59
2023/09/12 01:59:33;;;;;;;9.98;9.07;;;21.30;99.90;;;;;;5036348;28;20440;-62
2023/09/12 02:01:59;;;;;;;9.60;8.67;;;21.20;99.90;;;;;;5035916;28;20546;-58
2023/09/12 02:04:24;;;;;;;9.33;8.07;;;21.20;99.90;;;;;;5032717;28;20207;-61
2023/09/12 02:06:50;;;;;;;9.83;8.83;;;21.10;99.90;;;;;;5037865;28;20230;-58
2023/09/12 02:09:15;;;;;;;10.73;9.07;;;21.10;99.90;;;;;;5029177;28;20267;-58
2023/09/12 02:11:41;;;;;;;10.20;8.77;;;21.00;99.90;;;;;;5034124;28;20270;-58
2023/09/12 02:14:07;;;;;;;11.43;8.87;;;21.00;99.90;;;;;;5035815;28;20227;-59
2023/09/12 02:16:32;;;;;;;10.03;9.03;;;21.00;99.90;;;;;;5017560;28;20198;-58
2023/09/12 02:18:58;;;;;;;11.90;8.87;;;21.00;99.90;;;;;;5035347;28;20309;-58
2023/09/12 02:21:23;;;;;;;10.07;8.80;;;20.90;99.90;;;;;;5035716;28;20237;-65
2023/09/12 02:23:48;;;;;;;9.70;8.77;;;20.90;99.90;;;;;;5036308;28;20549;-58
2023/09/12 02:26:14;;;;;;;11.90;9.27;;;20.80;99.90;;;;;;5035329;28;20240;-58
2023/09/12 02:28:39;;;;;;;10.23;9.27;;;20.80;99.90;;;;;;5035411;28;20652;-60
2023/09/12 02:31:11;;;;;;;10.03;8.97;;;20.80;99.90;;;;;;5022600;28;20186;-60
2023/09/12 02:33:38;;;;;;;10.00;9.07;;;20.70;99.90;;;;;;5040276;28;20634;-61
2023/09/12 02:36:05;;;;;;;9.60;8.70;;;20.70;99.90;;;;;;5037811;28;20199;-59
2023/09/12 02:38:30;;;;;;;9.17;8.37;;;20.60;99.90;;;;;;5033046;28;20199;-60
2023/09/12 02:40:56;;;;;;;12.07;9.33;;;20.60;99.90;;;;;;5021320;28;20213;-59
2023/09/12 02:43:22;;;;;;;10.57;9.50;;;20.60;99.90;;;;;;5031078;28;20205;-61
2023/09/12 02:45:47;;;;;;;10.40;9.10;;;20.60;99.90;;;;;;5031384;28;21000;-64
2023/09/12 02:48:13;;;;;;;9.97;8.40;;;20.60;99.90;;;;;;5034957;28;20219;-64
2023/09/12 02:50:38;;;;;;;9.43;8.53;;;20.60;99.90;;;;;;5018606;28;20206;-64
2023/09/12 02:53:03;;;;;;;14.07;8.33;;;20.50;99.90;;;;;;5030395;28;20790;-64
2023/09/12 02:55:29;;;;;;;11.83;8.83;;;20.50;99.90;;;;;;5018196;28;20319;-61
2023/09/12 02:57:55;;;;;;;10.53;9.43;;;20.50;99.90;;;;;;5037579;28;20206;-64
2023/09/12 03:00:22;;;;;;;10.60;9.50;;;20.40;99.90;;;;;;5034677;28;20604;-64
2023/09/12 03:02:47;;;;;;;10.17;9.20;;;20.50;99.90;;;;;;5033564;28;20703;-64
2023/09/12 03:05:13;;;;;;;10.23;9.10;;;20.50;99.90;;;;;;5029383;28;20195;-58
2023/09/12 03:07:38;;;;;;;10.53;9.53;;;20.50;99.90;;;;;;5034925;28;20229;-57
2023/09/12 03:10:04;;;;;;;10.80;9.80;;;20.40;99.90;;;;;;5034932;28;20235;-61
2023/09/12 03:12:29;;;;;;;10.43;9.37;;;20.40;99.90;;;;;;5042146;28;20247;-59
2023/09/12 03:14:56;;;;;;;10.60;9.50;;;20.40;99.90;;;;;;5034427;28;20298;-58
2023/09/12 03:17:21;;;;;;;10.23;9.33;;;20.40;99.90;;;;;;5037925;28;20294;-63
2023/09/12 03:19:46;;;;;;;11.13;10.00;;;20.40;99.90;;;;;;5039340;28;20251;-58
2023/09/12 03:22:12;;;;;;;10.20;9.17;;;20.40;99.90;;;;;;5037433;28;20202;-61
2023/09/12 03:24:38;;;;;;;10.90;9.80;;;20.40;99.90;;;;;;5032756;28;20668;-59
2023/09/12 03:27:03;;;;;;;11.53;10.23;;;20.40;99.90;;;;;;5032713;28;20626;-58
2023/09/12 03:29:29;;;;;;;10.87;9.77;;;20.40;99.90;;;;;;5037024;28;20361;-58
2023/09/12 03:31:54;;;;;;;11.30;10.07;;;20.50;99.90;;;;;;5039573;28;20256;-62
2023/09/12 03:34:20;;;;;;;12.10;10.27;;;20.50;99.90;;;;;;5031684;28;20210;-61
2023/09/12 03:36:45;;;;;;;9.80;8.80;;;20.50;99.90;;;;;;5022825;28;20257;-60
2023/09/12 03:39:13;;;;;;;11.65;9.65;;;20.40;99.90;;;;;;5031263;28;20206;-61
2023/09/12 03:41:38;;;;;;;12.90;9.57;;;20.30;99.90;;;;;;5034566;28;20191;-62
2023/09/12 03:44:04;;;;;;;10.40;9.50;;;20.30;99.90;;;;;;5039766;28;20813;-62
2023/09/12 03:46:30;;;;;;;10.60;9.53;;;20.30;99.90;;;;;;5035126;28;20228;-62
2023/09/12 03:48:55;;;;;;;12.93;9.23;;;20.30;99.90;;;;;;5033078;28;20296;-61
2023/09/12 03:51:21;;;;;;;11.27;9.20;;;20.30;99.90;;;;;;5033483;28;20602;-61
2023/09/12 03:53:47;;;;;;;12.37;10.70;;;20.30;99.90;;;;;;5042925;28;20328;-61
2023/09/12 03:56:14;;;;;;;11.83;10.63;;;20.20;99.90;;;;;;5037059;28;20672;-61
2023/09/12 03:58:40;;;;;;;13.93;11.73;;;20.10;99.90;;;;;;5020665;28;20521;-60
2023/09/12 04:01:05;;;;;;;10.77;9.67;;;20.20;99.90;;;;;;5036721;28;21074;-60
2023/09/12 04:03:31;;;;;;;10.53;9.57;;;20.10;99.90;;;;;;5038970;28;20191;-60
2023/09/12 04:05:56;;;;;;;10.93;9.57;;;20.20;99.90;;;;;;5038299;28;20214;-60
2023/09/12 04:08:22;;;;;;;11.53;10.53;;;20.10;99.90;;;;;;5037746;28;20240;-61
2023/09/12 04:10:47;;;;;;;13.80;9.87;;;20.10;99.90;;;;;;5040393;28;20231;-60
2023/09/12 04:13:13;;;;;;;9.83;8.83;;;20.10;99.90;;;;;;5037736;28;20203;-61
2023/09/12 04:15:38;;;;;;;9.67;8.73;;;20.20;99.90;;;;;;5041770;28;20804;-61
2023/09/12 04:18:05;;;;;;;10.00;9.00;;;20.30;99.90;;;;;;5039683;28;20613;-61
2023/09/12 04:20:30;;;;;;;10.70;9.60;;;20.20;99.90;;;;;;5033044;28;20270;-61
2023/09/12 04:22:55;;;;;;;13.33;10.07;;;20.10;99.90;;;;;;5038958;28;20206;-61
2023/09/12 04:25:21;;;;;;;10.33;9.20;;;20.10;99.90;;;;;;5037528;28;20256;-60
2023/09/12 04:27:46;;;;;;;10.85;9.80;;;20.10;99.90;;;;;;5038944;28;20541;-60
2023/09/12 04:30:12;;;;;;;11.23;10.10;;;20.10;99.90;;;;;;5034177;28;20194;-61
2023/09/12 04:32:38;;;;;;;9.70;8.77;;;20.00;99.90;;;;;;5040166;28;20278;-62
2023/09/12 04:35:04;;;;;;;9.77;8.93;;;20.00;99.90;;;;;;5039019;28;20262;-61
2023/09/12 04:37:29;;;;;;;10.23;9.27;;;20.00;99.90;;;;;;5035076;28;20677;-61
2023/09/12 04:39:56;;;;;;;9.93;8.83;;;20.00;99.90;;;;;;5037884;28;20216;-61
2023/09/12 04:42:21;;;;;;;10.60;8.83;;;20.00;99.90;;;;;;5022154;28;20321;-62
2023/09/12 04:44:47;;;;;;;10.87;8.77;;;20.10;99.90;;;;;;5029369;28;20270;-62
2023/09/12 04:47:12;;;;;;;11.37;10.17;;;20.10;99.90;;;;;;5021659;28;20307;-62
2023/09/12 04:49:39;;;;;;;10.07;9.10;;;20.10;99.90;;;;;;5031358;28;20278;-60
2023/09/12 04:52:05;;;;;;;12.03;10.50;;;20.10;99.90;;;;;;5036432;28;20237;-61
2023/09/12 04:54:30;;;;;;;10.53;9.23;;;20.10;99.90;;;;;;5034438;28;20210;-64
2023/09/12 04:56:56;;;;;;;12.82;10.75;;;20.10;99.90;;;;;;5039394;28;20296;-64
2023/09/12 04:59:21;;;;;;;10.27;9.27;;;20.10;99.90;;;;;;5036834;28;20198;-66
2023/09/12 05:01:47;;;;;;;10.20;9.20;;;20.10;99.90;;;;;;5038633;28;20198;-64
2023/09/12 05:04:12;;;;;;;11.27;10.10;;;20.20;99.90;;;;;;5037563;28;20292;-64
2023/09/12 05:06:38;;;;;;;10.00;9.10;;;20.20;99.90;;;;;;5039950;28;20223;-64
2023/09/12 05:09:05;;;;;;;10.77;9.70;;;20.20;99.90;;;;;;5019438;28;20198;-64
2023/09/12 05:11:31;;;;;;;10.23;9.23;;;20.20;99.90;;;;;;5036433;28;20941;-63
2023/09/12 05:13:56;;;;;;;10.40;9.30;;;20.20;99.90;;;;;;5032507;28;21077;-64
2023/09/12 05:16:22;;;;;;;15.00;10.73;;;20.10;99.90;;;;;;5041846;28;20198;-64
2023/09/12 05:18:49;;;;;;;11.17;10.17;;;20.10;99.90;;;;;;5037008;28;20777;-64
2023/09/12 05:21:14;;;;;;;16.50;11.43;;;20.10;99.90;;;;;;5032040;28;20692;-64
2023/09/12 05:23:40;;;;;;;10.53;9.53;;;20.10;99.90;;;;;;5036157;28;20190;-64
2023/09/12 05:26:06;;;;;;;12.43;10.23;;;20.20;99.90;;;;;;5016250;28;20256;-64
2023/09/12 05:28:31;;;;;;;13.80;10.43;;;20.30;99.90;;;;;;5035104;28;20641;-64
2023/09/12 05:30:57;;;;;;;10.60;9.60;;;20.30;99.90;;;;;;5036770;28;20195;-60
2023/09/12 05:33:23;;;;;;;10.53;9.60;;;20.30;99.90;;;;;;5037860;28;20226;-65
2023/09/12 05:35:48;;;;;;;12.67;10.80;;;20.40;99.90;;;;;;5033836;28;20631;-58
2023/09/12 05:38:13;;;;;;;12.53;10.57;;;20.40;99.90;;;;;;5018429;28;20195;-59
2023/09/12 05:40:39;;;;;;;10.63;9.60;;;20.40;99.90;;;;;;5036682;28;20213;-59
2023/09/12 05:43:05;;;;;;;12.33;10.57;;;20.40;99.90;;;;;;5018450;28;20782;-60
2023/09/12 05:45:32;;;;;;;11.80;10.47;;;20.40;99.90;;;;;;5027577;28;20202;-60
2023/09/12 05:47:58;;;;;;;14.10;12.65;;;20.50;99.90;;;;;;5035932;28;20470;-63
2023/09/12 05:50:23;;;;;;;15.07;10.40;;;20.50;99.90;;;;;;5018100;28;20652;-62
2023/09/12 05:52:49;;;;;;;11.87;10.30;;;20.50;99.90;;;;;;5039763;28;20214;-62
2023/09/12 05:55:14;;;;;;;11.50;10.27;;;20.60;99.90;;;;;;5033500;28;20715;-61
2023/09/12 05:57:40;;;;;;;12.77;11.00;;;20.70;99.90;;;;;;5036396;28;20194;-62
2023/09/12 06:00:10;;;;;;;11.43;10.27;;;20.80;99.90;;;;;;5029441;28;20286;-61
2023/09/12 06:02:35;;;;;;;14.80;10.40;;;20.80;99.90;;;;;;5022721;28;20302;-61
2023/09/12 06:05:01;;;;;;;11.43;9.87;;;20.90;99.90;;;;;;5041612;28;20588;-62
2023/09/12 06:07:26;;;;;;;14.07;9.70;;;20.80;99.90;;;;;;5035633;28;20225;-62
2023/09/12 06:09:52;;;;;;;14.37;10.17;;;20.70;99.90;;;;;;5035778;28;20214;-61
2023/09/12 06:12:18;;;;;;;11.27;10.17;;;20.60;99.90;;;;;;5035380;28;20198;-61
2023/09/12 06:14:43;;;;;;;16.17;10.13;;;20.60;99.90;;;;;;5035860;28;20221;-64
2023/09/12 06:17:09;;;;;;;11.73;10.53;;;20.70;99.90;;;;;;5030921;28;20218;-63
2023/09/12 06:19:35;;;;;;;14.27;10.87;;;20.80;99.90;;;;;;5036645;28;20341;-63
2023/09/12 06:22:00;;;;;;;16.63;10.57;;;20.90;99.90;;;;;;5033313;28;20299;-62
2023/09/12 06:24:26;;;;;;;18.27;10.77;;;20.80;99.90;;;;;;5034918;28;20233;-62
2023/09/12 06:26:51;;;;;;;13.43;10.13;;;20.90;99.90;;;;;;5012237;28;20218;-61
2023/09/12 06:29:18;;;;;;;16.93;11.07;;;20.90;99.90;;;;;;5015189;28;20327;-62
2023/09/12 06:31:43;;;;;;;12.30;9.93;;;21.00;99.90;;;;;;5032625;28;20677;-62
2023/09/12 06:34:10;;;;;;;10.73;9.43;;;21.00;99.90;;;;;;5034128;28;20252;-62
2023/09/12 06:36:36;;;;;;;17.00;10.70;;;21.10;99.90;;;;;;5035533;28;20213;-64
2023/09/12 06:39:02;;;;;;;13.68;10.13;;;21.20;99.90;;;;;;5037180;28;20620;-62
2023/09/12 06:41:28;;;;;;;12.67;9.97;;;21.20;99.90;;;;;;5017380;28;20616;-62
2023/09/12 06:43:53;;;;;;;10.65;8.88;;;21.30;99.90;;;;;;5013442;28;20199;-63
2023/09/12 06:46:19;;;;;;;14.07;10.03;;;21.20;99.90;;;;;;5032287;28;20206;-63
2023/09/12 06:48:45;;;;;;;13.10;10.10;;;21.20;99.90;;;;;;5031777;28;20259;-63
2023/09/12 06:51:12;;;;;;;12.60;9.27;;;21.20;99.90;;;;;;5018072;28;20217;-63
2023/09/12 06:53:37;;;;;;;9.20;7.80;;;21.30;99.90;;;;;;5033618;28;20669;-61
2023/09/12 06:56:06;;;;;;;8.88;7.68;;;21.30;99.90;;;;;;5039082;28;20199;-62
2023/09/12 06:58:32;;;;;;;15.10;8.30;;;21.40;99.90;;;;;;5015782;28;20229;-62
2023/09/12 07:01:05;;;;;;;10.00;7.23;;;21.60;99.90;;;;;;5035541;28;20225;-62
2023/09/12 07:03:32;;;;;;;13.13;8.10;;;21.70;99.90;;;;;;5035575;28;20209;-62
2023/09/12 07:05:57;;;;;;;8.20;7.40;;;21.70;99.90;;;;;;5032143;28;20238;-63
2023/09/12 07:08:23;;;;;;;17.73;7.70;;;21.70;99.90;;;;;;5042068;28;20280;-61
2023/09/12 07:10:48;;;;;;;8.67;7.60;;;21.70;99.90;;;;;;5035485;28;20192;-61
2023/09/12 07:13:14;;;;;;;9.20;7.50;;;21.70;99.90;;;;;;5014408;28;20308;-61
2023/09/12 07:15:39;;;;;;;13.18;7.97;;;21.70;99.90;;;;;;5035282;28;20221;-61
2023/09/12 07:18:06;;;;;;;9.57;7.68;;;21.70;99.90;;;;;;5035022;28;20613;-61
2023/09/12 07:20:32;;;;;;;9.47;7.10;;;21.80;99.90;;;;;;5035623;28;20594;-60
2023/09/12 07:22:58;;;;;;;13.57;8.30;;;21.80;99.90;;;;;;5035473;28;20206;-60
2023/09/12 07:25:23;;;;;;;11.73;9.48;;;21.80;99.90;;;;;;5018881;28;20190;-61
2023/09/12 07:27:50;;;;;;;12.10;8.13;;;21.80;99.90;;;;;;5037053;28;20211;-61
2023/09/12 07:30:16;;;;;;;13.07;8.60;;;21.80;99.90;;;;;;5036219;28;20209;-62
2023/09/12 07:32:41;;;;;;;10.77;8.50;;;21.90;99.90;;;;;;5037488;28;20202;-61
2023/09/12 07:35:07;;;;;;;8.30;6.88;;;21.90;99.90;;;;;;5040063;28;20807;-67
2023/09/12 07:37:33;;;;;;;8.93;7.28;;;21.90;99.90;;;;;;5045760;28;20206;-59
2023/09/12 07:39:58;;;;;;;9.48;6.78;;;22.00;99.90;;;;;;5038539;28;20224;-59
2023/09/12 07:42:24;;;;;;;12.05;7.93;;;22.10;99.90;;;;;;5034508;28;20269;-59
2023/09/12 07:44:50;;;;;;;7.63;6.70;;;22.10;99.90;;;;;;5019240;28;20533;-58
2023/09/12 07:47:16;;;;;;;14.13;7.55;;;22.20;99.90;;;;;;5035862;28;20233;-59
2023/09/12 07:49:42;;;;;;;12.02;7.43;;;22.30;99.90;;;;;;5041143;28;20370;-59
2023/09/12 07:52:07;;;;;;;12.23;7.85;;;22.50;99.90;;;;;;5037173;28;20218;-62
2023/09/12 07:54:33;;;;;;;14.20;7.03;;;22.70;99.90;;;;;;5035556;28;20202;-62
2023/09/12 07:56:58;;;;;;;17.17;7.70;;;22.80;99.90;;;;;;5044851;28;20721;-62
2023/09/12 07:59:24;;;;;;;10.07;7.13;;;22.90;99.90;;;;;;5037064;28;20198;-62
2023/09/12 08:01:51;;;;;;;10.95;7.28;;;23.10;99.90;;;;;;5040327;28;20206;-62
2023/09/12 08:04:16;;;;;;;19.85;8.00;;;23.10;99.90;;;;;;5031551;28;20258;-65
2023/09/12 08:06:42;;;;;;;12.60;7.30;;;23.40;99.90;;;;;;5037121;28;20221;-63
2023/09/12 08:09:08;;;;;;;14.55;8.48;;;23.70;99.90;;;;;;5039096;28;20198;-62
2023/09/12 08:11:33;;;;;;;21.02;9.32;;;23.80;99.90;;;;;;5035583;28;20196;-62
2023/09/12 08:13:59;;;;;;;11.88;6.78;;;23.90;99.90;;;;;;5036314;28;20199;-63
2023/09/12 08:16:25;;;;;;;11.65;7.78;;;23.80;99.90;;;;;;5038084;28;20281;-59
2023/09/12 08:18:50;;;;;;;14.15;7.32;;;23.70;99.90;;;;;;5035357;28;20241;-63
2023/09/12 08:21:15;;;;;;;11.95;7.85;;;23.80;99.90;;;;;;5016440;28;20205;-64
2023/09/12 08:23:41;;;;;;;13.48;8.07;;;24.00;99.90;;;;;;5038149;28;20205;-62
2023/09/12 08:26:07;;;;;;;11.57;6.78;;;24.00;99.90;;;;;;5044805;28;20218;-65
2023/09/12 08:28:33;;;;;;;14.65;7.57;;;24.10;99.90;;;;;;5032749;28;20802;-64
2023/09/12 08:30:58;;;;;;;9.43;6.45;;;24.10;99.90;;;;;;5019297;28;20209;-65
2023/09/12 08:33:24;;;;;;;10.43;6.35;;;24.10;99.90;;;;;;5038573;28;20224;-65
2023/09/12 08:35:50;;;;;;;11.20;7.07;;;24.20;99.90;;;;;;5039326;28;20258;-62
2023/09/12 08:38:16;;;;;;;8.57;6.72;;;24.20;99.90;;;;;;5036868;28;20265;-63
2023/09/12 08:40:49;;;;;;;13.85;6.22;;;24.20;99.90;;;;;;5019611;28;20191;-63
2023/09/12 08:43:14;;;;;;;14.45;6.68;;;24.30;99.90;;;;;;5017753;28;20202;-66
2023/09/12 08:45:40;;;;;;;9.38;6.32;;;24.20;99.90;;;;;;5034904;28;20235;-67
2023/09/12 08:48:07;;;;;;;8.63;6.07;;;24.30;99.90;;;;;;5038689;28;20220;-63
2023/09/12 08:50:34;;;;;;;7.00;5.50;;;24.40;99.90;;;;;;5031836;28;20197;-62
2023/09/12 08:52:59;;;;;;;14.45;7.55;;;24.40;99.90;;;;;;5037777;28;20197;-63
2023/09/12 08:55:25;;;;;;;12.88;6.75;;;24.60;99.90;;;;;;5038058;28;20221;-65
2023/09/12 08:57:53;;;;;;;15.82;6.72;;;24.70;99.90;;;;;;5034569;28;20427;-62
2023/09/12 09:00:20;;;;;;;12.13;5.75;;;24.80;99.90;;;;;;5038147;28;20205;-62
2023/09/12 09:02:46;;;;;;;8.50;5.35;;;24.80;99.90;;;;;;5036800;28;20200;-62
2023/09/12 09:05:12;;;;;;;10.15;6.63;;;25.00;99.90;;;;;;5037156;28;20207;-63
2023/09/12 09:07:40;;;;;;;12.48;6.40;;;25.00;99.90;;;;;;5037187;28;20782;-62
2023/09/12 09:10:32;;;;;;;11.00;6.05;;;25.10;99.90;;;;;;5034625;28;20303;-63
2023/09/12 09:12:57;;;;;;;9.57;6.90;;;25.20;99.90;;;;;;5030034;28;20265;-64
2023/09/12 09:15:29;;;;;;;10.10;7.10;;;25.30;99.90;;;;;;5034504;28;20636;-66
2023/09/12 09:17:57;;;;;;;14.30;6.93;;;25.40;99.90;;;;;;5016347;28;20198;-61
2023/09/12 09:20:34;;;;;;;12.88;7.75;;;25.40;99.90;;;;;;5033438;28;20214;-61
2023/09/12 09:23:10;;;;;;;8.13;7.05;;;25.50;99.90;;;;;;5032650;28;20206;-60
2023/09/12 09:25:41;;;;;;;14.15;7.63;;;25.70;99.90;;;;;;5035880;28;20205;-60
2023/09/12 09:28:20;;;;;;;12.05;7.50;;;25.70;99.90;;;;;;5036760;28;20206;-60
2023/09/12 09:30:47;;;;;;;8.65;7.75;;;25.70;99.90;;;;;;5029230;28;20205;-61
2023/09/12 09:33:15;;;;;;;14.18;7.90;;;25.80;99.90;;;;;;5036682;28;21035;-61
2023/09/12 09:35:48;;;;;;;11.00;8.30;;;25.80;99.90;;;;;;5034335;28;20211;-62
2023/09/12 09:38:18;;;;;;;14.15;9.18;;;25.20;99.90;;;;;;5029598;28;20200;-63
2023/09/12 09:40:44;;;;;;;11.90;8.70;;;24.70;99.90;;;;;;5020664;28;20219;-63
2023/09/12 09:43:10;;;;;;;13.65;9.40;;;24.60;99.90;;;;;;5018072;28;20306;-65
2023/09/12 09:45:46;;;;;;;13.50;9.57;;;24.50;99.90;;;;;;5036121;28;20669;-64
2023/09/12 09:48:21;;;;;;;16.48;9.65;;;24.50;99.90;;;;;;5020813;28;20350;-65
2023/09/12 09:50:47;;;;;;;14.02;8.80;;;24.50;99.90;;;;;;5033542;28;20210;-64
2023/09/12 09:53:13;;;;;;;11.02;9.50;;;24.40;99.90;;;;;;5036500;28;20211;-61
2023/09/12 09:55:39;;;;;;;12.38;9.13;;;24.40;99.90;;;;;;5024977;28;20308;-60
2023/09/12 09:58:07;;;;;;;16.15;9.20;;;24.70;99.90;;;;;;5033430;28;20260;-60
2023/09/12 10:00:37;;;;;;;15.10;10.23;;;24.70;99.90;;;;;;5040597;28;20274;-61
2023/09/12 10:03:07;;;;;;;20.17;10.23;;;24.80;99.90;;;;;;5035139;28;20229;-60
2023/09/12 10:05:34;;;;;;;13.40;9.13;;;24.90;99.90;;;;;;5033756;28;20206;-60
2023/09/12 10:08:06;;;;;;;14.73;9.70;;;24.90;99.90;;;;;;5037459;28;20208;-65
2023/09/12 10:10:34;;;;;;;18.15;10.25;;;24.90;99.90;;;;;;5030118;28;20213;-60
2023/09/12 10:13:03;;;;;;;11.68;10.18;;;25.30;99.90;;;;;;5038426;28;20193;-64
2023/09/12 10:15:30;;;;;;;9.82;8.27;;;25.30;99.90;;;;;;5033090;28;20192;-61
2023/09/12 10:18:09;;;;;;;12.57;8.88;;;25.70;99.90;;;;;;5014822;28;20201;-62
2023/09/12 10:20:45;;;;;;;15.07;9.35;;;25.80;99.90;;;;;;5039362;28;20192;-63
2023/09/12 10:23:30;;;;;;;11.25;7.90;;;25.80;99.90;;;;;;5020857;28;20859;-63
2023/09/12 10:25:58;;;;;;;12.80;8.40;;;25.80;99.90;;;;;;5035633;28;20557;-62
2023/09/12 10:28:25;;;;;;;21.55;9.95;;;25.80;99.90;;;;;;5033911;28;20772;-62
2023/09/12 10:30:52;;;;;;;16.42;8.55;;;26.00;99.90;;;;;;5031023;28;20902;-63
2023/09/12 10:33:18;;;;;;;11.43;8.25;;;26.10;99.90;;;;;;5035329;28;20262;-63
2023/09/12 10:35:45;;;;;;;24.77;9.18;;;26.00;99.90;;;;;;5035804;28;20236;-64
2023/09/12 10:38:14;;;;;;;14.43;7.78;;;26.10;99.90;;;;;;5035581;28;20258;-63
2023/09/12 10:40:40;;;;;;;12.45;7.93;;;26.10;99.90;;;;;;5017737;28;20208;-61
2023/09/12 10:43:09;;;;;;;9.48;7.85;;;26.20;99.90;;;;;;5036552;28;20231;-63
2023/09/12 10:45:36;;;;;;;14.50;8.38;;;26.40;99.90;;;;;;5036198;28;20195;-64
2023/09/12 10:48:02;;;;;;;15.38;7.95;;;26.50;99.90;;;;;;5021821;28;20884;-64
2023/09/12 10:50:29;;;;;;;11.05;9.52;;;26.50;99.90;;;;;;5037147;28;20709;-63
2023/09/12 10:52:54;;;;;;;17.92;8.35;;;26.50;99.90;;;;;;5017573;28;20220;-63
2023/09/12 10:55:20;;;;;;;22.27;8.40;;;26.70;99.90;;;;;;5018120;28;23733;-62
2023/09/12 10:58:10;;;;;;;13.75;8.77;;;26.90;99.90;;;;;;5020713;28;20199;-62
2023/09/12 11:00:38;;;;;;;9.63;8.48;;;27.00;99.90;;;;;;5036372;28;20199;-62
2023/09/12 11:03:26;;;;;;;17.40;9.13;;;27.20;99.90;;;;;;5045322;28;20609;-62
2023/09/12 11:05:54;;;;;;;9.50;7.63;;;27.40;99.90;;;;;;5039331;28;20194;-63
2023/09/12 11:08:19;;;;;;;8.90;7.30;;;27.40;99.90;;;;;;5041276;28;20247;-60
2023/09/12 11:11:05;;;;;;;14.25;7.60;;;27.40;99.90;;;;;;5043255;28;20743;-61
2023/09/12 11:13:41;;;;;;;15.13;10.05;;;27.50;99.90;;;;;;5036560;28;20287;-61
2023/09/12 11:16:14;;;;;;;12.55;6.20;;;27.50;99.90;;;;;;5039913;28;20300;-62
2023/09/12 11:19:25;;;;;;;11.15;6.25;;;27.60;99.90;;;;;;5038589;28;20194;-61
2023/09/12 11:21:52;;;;;;;10.50;6.38;;;27.60;99.90;;;;;;5043149;28;20266;-66
2023/09/12 11:24:19;;;;;;;12.60;6.65;;;27.70;99.90;;;;;;5020851;28;20216;-65
2023/09/12 11:26:54;;;;;;;7.43;6.65;;;27.80;99.90;;;;;;5020858;28;20735;-65
2023/09/12 11:29:20;;;;;;;11.05;5.80;;;28.00;99.90;;;;;;5019010;28;20610;-64
2023/09/12 11:31:54;;;;;;;10.88;6.40;;;28.10;99.90;;;;;;5022096;28;20195;-66
2023/09/12 11:34:19;;;;;;;8.75;5.93;;;28.10;99.90;;;;;;5039558;28;20545;-65
2023/09/12 11:36:46;;;;;;;8.32;6.45;;;28.10;99.90;;;;;;5036615;28;20209;-65
2023/09/12 11:39:27;;;;;;;10.15;6.07;;;27.90;99.90;;;;;;5040859;28;20816;-65
2023/09/12 11:41:55;;;;;;;13.77;6.68;;;27.90;99.90;;;;;;5037615;28;20202;-65
2023/09/12 11:44:21;;;;;;;9.45;6.15;;;27.70;99.90;;;;;;5036418;28;20198;-66
2023/09/12 11:46:49;;;;;;;7.32;6.63;;;27.80;99.90;;;;;;5038021;28;20215;-65
2023/09/12 11:49:15;;;;;;;6.65;5.97;;;27.70;99.90;;;;;;5043154;28;20209;-66
2023/09/12 11:51:51;;;;;;;6.70;6.03;;;27.50;99.90;;;;;;5033977;28;20213;-67
2023/09/12 11:54:20;;;;;;;8.93;5.93;;;27.50;99.90;;;;;;5021191;28;20209;-67
2023/09/12 11:56:48;;;;;;;8.10;6.25;;;27.60;99.90;;;;;;5022834;28;20542;-67
2023/09/12 11:59:14;;;;;;;10.98;5.70;;;27.90;99.90;;;;;;5042362;28;20190;-68
2023/09/12 12:01:41;;;;;;;7.82;5.15;;;28.00;99.90;;;;;;5039918;28;20241;-62
2023/09/12 12:04:07;;;;;;;10.45;6.00;;;28.10;99.90;;;;;;5039683;28;20204;-61
2023/09/12 12:06:32;;;;;;;9.45;5.43;;;28.10;99.60;;;;;;5033962;28;20226;-61
2023/09/12 12:08:58;;;;;;;8.63;5.97;;;28.50;99.00;;;;;;5041958;28;20203;-61
2023/09/12 12:11:28;;;;;;;8.85;6.05;;;28.90;99.30;;;;;;5038068;28;20669;-61
2023/09/12 12:13:53;;;;;;;8.25;5.40;;;29.00;99.20;;;;;;5033961;28;20571;-61
2023/09/12 12:16:19;;;;;;;7.97;6.15;;;28.90;98.80;;;;;;5037850;28;20209;-62
2023/09/12 12:18:45;;;;;;;6.53;4.45;;;28.90;98.30;;;;;;5038110;28;20198;-62
2023/09/12 12:21:10;;;;;;;7.22;5.03;;;28.90;98.80;;;;;;5036136;28;20930;-62
2023/09/12 12:23:36;;;;;;;5.72;5.22;;;29.00;99.00;;;;;;5037105;28;20289;-61
2023/09/12 12:26:05;;;;;;;5.65;4.97;;;29.30;99.10;;;;;;5041519;28;20214;-64
2023/09/12 12:28:31;;;;;;;5.35;4.95;;;29.40;97.10;;;;;;5035734;28;20281;-64
2023/09/12 12:30:57;;;;;;;5.70;4.88;;;29.50;96.80;;;;;;5038809;28;20198;-67
2023/09/12 12:33:22;;;;;;;8.70;5.05;;;29.60;96.90;;;;;;5042438;28;20943;-67
2023/09/12 12:35:49;;;;;;;9.63;5.18;;;30.00;95.30;;;;;;5043867;28;20617;-64
2023/09/12 12:38:15;;;;;;;7.72;4.70;;;30.10;95.30;;;;;;5032911;28;20197;-65